createdAt,value
2018-08-18T00:00:14.884Z,12.39
2018-08-18T00:02:43.506Z,12.35
2018-08-18T00:05:12.936Z,12.37
2018-08-18T00:07:41.912Z,12.43
2018-08-18T00:10:11.680Z,12.40
2018-08-18T00:12:40.307Z,12.36
2018-08-18T00:15:09.895Z,12.30
2018-08-18T00:17:38.990Z,12.33
2018-08-18T00:20:10.213Z,12.38
2018-08-18T00:22:38.742Z,12.23
2018-08-18T00:25:07.387Z,12.22
2018-08-18T00:27:35.840Z,12.21
2018-08-18T00:30:10.497Z,12.20
2018-08-18T00:32:39.068Z,12.23
2018-08-18T00:35:08.548Z,12.17
2018-08-18T00:37:37.150Z,12.01
2018-08-18T00:40:07.236Z,11.98
2018-08-18T00:42:35.817Z,12.12
2018-08-18T00:45:05.200Z,12.21
2018-08-18T00:47:33.716Z,12.06
2018-08-18T00:50:02.213Z,12.05
2018-08-18T00:52:30.697Z,11.98
2018-08-18T00:54:59.292Z,11.99
2018-08-18T00:57:29.348Z,11.89
2018-08-18T00:59:58.439Z,11.81
2018-08-18T01:02:27.992Z,11.73
2018-08-18T01:04:58.547Z,11.77
2018-08-18T01:07:27.981Z,11.81
2018-08-18T01:09:56.884Z,11.94
2018-08-18T01:12:26.079Z,11.92
2018-08-18T01:14:55.075Z,11.78
2018-08-18T01:17:25.991Z,11.72
2018-08-18T01:20:01.567Z,11.63
2018-08-18T01:22:30.099Z,11.71
2018-08-18T01:24:58.625Z,11.69
2018-08-18T01:27:27.251Z,11.57
2018-08-18T01:30:00.764Z,11.58
2018-08-18T01:32:31.153Z,11.53
2018-08-18T01:34:59.907Z,11.66
2018-08-18T01:37:28.477Z,11.52
2018-08-18T01:39:56.935Z,11.47
2018-08-18T01:42:25.424Z,11.37
2018-08-18T01:44:55.297Z,11.32
2018-08-18T01:47:23.796Z,11.30
2018-08-18T01:49:52.273Z,11.40
2018-08-18T01:52:22.770Z,11.44
2018-08-18T01:54:51.250Z,11.38
2018-08-18T01:57:20.584Z,11.32
2018-08-18T01:59:49.338Z,11.29
2018-08-18T02:02:19.740Z,11.27
2018-08-18T02:04:48.615Z,11.25
2018-08-18T02:07:33.037Z,11.24
2018-08-18T02:10:01.608Z,11.19
2018-08-18T02:12:30.316Z,11.20
2018-08-18T02:14:59.997Z,11.21
2018-08-18T02:17:31.487Z,11.30
2018-08-18T02:20:00.112Z,11.24
2018-08-18T02:22:29.276Z,11.20
2018-08-18T02:24:57.771Z,11.28
2018-08-18T02:27:26.425Z,11.22
2018-08-18T02:30:06.621Z,11.23
2018-08-18T02:32:36.984Z,11.28
2018-08-18T02:35:06.274Z,11.21
2018-08-18T02:37:34.775Z,11.14
2018-08-18T02:40:03.336Z,11.21
2018-08-18T02:42:31.813Z,11.16
2018-08-18T02:45:00.325Z,11.00
2018-08-18T02:47:28.827Z,10.98
2018-08-18T02:50:00.134Z,11.06
2018-08-18T02:52:31.994Z,11.13
2018-08-18T02:55:01.663Z,10.98
2018-08-18T02:57:33.422Z,11.04
2018-08-18T03:00:03.104Z,11.06
2018-08-18T03:02:31.584Z,11.00
2018-08-18T03:05:00.160Z,11.06
2018-08-18T03:07:40.119Z,11.12
2018-08-18T03:10:14.664Z,11.05
2018-08-18T03:12:44.132Z,10.93
2018-08-18T03:15:17.776Z,10.81
2018-08-18T03:17:46.238Z,10.68
2018-08-18T03:20:14.688Z,10.68
2018-08-18T03:22:43.649Z,10.63
2018-08-18T03:25:12.112Z,10.69
2018-08-18T03:27:40.577Z,10.79
2018-08-18T03:30:09.164Z,10.88
2018-08-18T03:32:37.704Z,10.79
2018-08-18T03:35:06.239Z,10.74
2018-08-18T03:37:34.765Z,10.86
2018-08-18T03:40:03.289Z,10.85
2018-08-18T03:42:40.860Z,10.68
2018-08-18T03:45:10.279Z,10.70
2018-08-18T03:47:38.756Z,10.56
2018-08-18T03:50:07.339Z,10.68
2018-08-18T03:52:35.784Z,10.69
2018-08-18T03:55:04.246Z,10.70
2018-08-18T03:57:45.588Z,10.66
2018-08-18T04:00:14.860Z,10.56
2018-08-18T04:02:43.336Z,10.55
2018-08-18T04:05:11.786Z,10.41
2018-08-18T04:07:45.532Z,10.37
2018-08-18T04:10:14.060Z,10.37
2018-08-18T04:12:42.580Z,10.40
2018-08-18T04:15:11.069Z,10.47
2018-08-18T04:17:39.526Z,10.43
2018-08-18T04:20:08.024Z,10.47
2018-08-18T04:22:36.648Z,10.53
2018-08-18T04:25:05.848Z,10.43
2018-08-18T04:27:41.412Z,10.48
2018-08-18T04:30:15.280Z,10.57
2018-08-18T04:32:51.007Z,10.54
2018-08-18T04:35:21.344Z,10.50
2018-08-18T04:37:50.534Z,10.36
2018-08-18T04:40:19.131Z,10.25
2018-08-18T04:42:47.748Z,10.27
2018-08-18T04:45:17.719Z,10.37
2018-08-18T04:47:46.412Z,10.38
2018-08-18T04:50:14.961Z,10.35
2018-08-18T04:52:43.524Z,10.35
2018-08-18T04:55:13.086Z,10.42
2018-08-18T04:57:41.631Z,10.52
2018-08-18T05:00:11.711Z,10.61
2018-08-18T05:02:48.444Z,10.68
2018-08-18T05:05:18.947Z,10.66
2018-08-18T05:07:48.831Z,10.80
2018-08-18T05:10:19.152Z,10.88
2018-08-18T05:12:47.624Z,10.92
2018-08-18T05:15:17.120Z,11.07
2018-08-18T05:17:45.901Z,11.15
2018-08-18T05:20:16.768Z,11.20
2018-08-18T05:22:45.244Z,11.22
2018-08-18T05:25:13.748Z,11.28
2018-08-18T05:27:42.246Z,11.42
2018-08-18T05:30:10.712Z,11.52
2018-08-18T05:32:39.287Z,11.59
2018-08-18T05:35:08.585Z,11.62
2018-08-18T05:37:37.020Z,11.69
2018-08-18T05:40:05.644Z,11.79
2018-08-18T05:42:34.120Z,11.88
2018-08-18T05:45:18.043Z,11.99
2018-08-18T05:47:46.650Z,12.13
2018-08-18T05:50:15.092Z,12.18
2018-08-18T05:52:43.596Z,12.22
2018-08-18T05:55:12.041Z,12.31
2018-08-18T05:57:40.527Z,12.34
2018-08-18T06:00:14.359Z,12.41
2018-08-18T06:02:48.041Z,12.49
2018-08-18T06:05:16.552Z,12.65
2018-08-18T06:07:45.059Z,12.68
2018-08-18T06:10:13.560Z,12.74
2018-08-18T06:12:42.082Z,12.92
2018-08-18T06:15:10.680Z,12.99
2018-08-18T06:17:41.961Z,13.06
2018-08-18T06:20:10.514Z,13.19
2018-08-18T06:22:40.033Z,13.32
2018-08-18T06:25:08.916Z,13.44
2018-08-18T06:27:37.560Z,13.54
2018-08-18T06:30:06.556Z,13.68
2018-08-18T06:32:35.035Z,13.76
2018-08-18T06:35:03.653Z,13.86
2018-08-18T06:37:32.102Z,14.02
2018-08-18T06:40:00.959Z,14.14
2018-08-18T06:42:40.429Z,14.25
2018-08-18T06:45:13.252Z,14.36
2018-08-18T06:47:42.308Z,14.48
2018-08-18T06:50:13.141Z,14.62
2018-08-18T06:52:42.027Z,14.69
2018-08-18T06:55:19.320Z,14.77
2018-08-18T06:57:51.168Z,14.92
2018-08-18T07:00:21.600Z,15.01
2018-08-18T07:02:50.395Z,15.18
2018-08-18T07:05:19.930Z,15.27
2018-08-18T07:07:49.318Z,15.39
2018-08-18T07:10:29.863Z,15.52
2018-08-18T07:13:00.063Z,15.63
2018-08-18T07:15:30.132Z,15.71
2018-08-18T07:17:58.655Z,15.84
2018-08-18T07:20:27.155Z,15.96
2018-08-18T07:22:56.056Z,16.15
2018-08-18T07:25:24.675Z,16.32
2018-08-18T07:27:59.264Z,16.45
2018-08-18T07:30:28.956Z,16.58
2018-08-18T07:32:57.692Z,16.67
2018-08-18T07:35:26.315Z,16.75
2018-08-18T07:37:54.980Z,16.91
2018-08-18T07:40:43.959Z,17.05
2018-08-18T07:43:15.649Z,17.19
2018-08-18T07:45:44.452Z,17.36
2018-08-18T07:48:13.032Z,17.48
2018-08-18T07:50:41.654Z,17.67
2018-08-18T07:53:10.159Z,17.73
2018-08-18T07:55:38.820Z,17.84
2018-08-18T07:58:09.949Z,18.00
2018-08-18T08:00:38.999Z,18.17
2018-08-18T08:03:09.073Z,18.25
2018-08-18T08:05:37.622Z,18.30
2018-08-18T08:08:06.516Z,18.46
2018-08-18T08:10:35.059Z,18.52
2018-08-18T08:13:03.698Z,18.63
2018-08-18T08:15:32.198Z,18.72
2018-08-18T08:18:00.768Z,18.75
2018-08-18T08:20:29.295Z,18.80
2018-08-18T08:22:57.877Z,18.94
2018-08-18T08:25:26.373Z,18.96
2018-08-18T08:27:55.468Z,19.00
2018-08-18T08:30:25.163Z,19.24
2018-08-18T08:32:53.861Z,19.33
2018-08-18T08:35:22.391Z,19.29
2018-08-18T08:37:53.947Z,19.38
2018-08-18T08:40:23.285Z,19.55
2018-08-18T08:42:51.985Z,19.65
2018-08-18T08:45:21.844Z,19.66
2018-08-18T08:47:50.431Z,19.63
2018-08-18T08:50:20.912Z,19.70
2018-08-18T08:52:53.761Z,19.70
2018-08-18T08:55:24.532Z,19.77
2018-08-18T08:57:53.127Z,19.91
2018-08-18T09:00:21.641Z,20.20
2018-08-18T09:02:50.191Z,20.31
2018-08-18T09:05:19.354Z,20.44
2018-08-18T09:07:47.856Z,20.61
2018-08-18T09:10:17.014Z,20.41
2018-08-18T09:12:45.544Z,20.41
2018-08-18T09:15:15.061Z,20.41
2018-08-18T09:17:43.600Z,20.42
2018-08-18T09:20:15.416Z,20.46
2018-08-18T09:23:01.296Z,20.47
2018-08-18T09:25:31.128Z,20.43
2018-08-18T09:28:01.873Z,20.41
2018-08-18T09:30:31.556Z,20.38
2018-08-18T09:33:04.195Z,20.54
2018-08-18T09:35:46.885Z,20.66
2018-08-18T09:38:15.429Z,20.98
2018-08-18T09:40:43.990Z,21.18
2018-08-18T09:43:17.712Z,21.06
2018-08-18T09:45:46.279Z,20.94
2018-08-18T09:48:14.872Z,20.94
2018-08-18T09:50:43.461Z,20.95
2018-08-18T09:53:11.933Z,21.11
2018-08-18T09:55:40.384Z,21.22
2018-08-18T09:58:09.629Z,21.31
2018-08-18T10:00:40.048Z,21.27
2018-08-18T10:03:08.905Z,21.25
2018-08-18T10:05:37.776Z,21.41
2018-08-18T10:08:07.117Z,21.65
2018-08-18T10:10:35.884Z,21.81
2018-08-18T10:13:04.851Z,21.73
2018-08-18T10:15:33.357Z,21.83
2018-08-18T10:18:01.919Z,21.84
2018-08-18T10:20:35.536Z,21.96
2018-08-18T10:23:04.515Z,21.94
2018-08-18T10:25:33.030Z,22.07
2018-08-18T10:28:01.492Z,22.15
2018-08-18T10:30:34.010Z,22.37
2018-08-18T10:33:17.983Z,22.46
2018-08-18T10:35:46.500Z,22.71
2018-08-18T10:38:14.964Z,22.84
2018-08-18T10:40:43.496Z,22.70
2018-08-18T10:43:11.996Z,22.71
2018-08-18T10:45:40.579Z,22.69
2018-08-18T10:48:09.060Z,22.71
2018-08-18T10:51:47.368Z,22.77
2018-08-18T10:54:15.848Z,23.16
2018-08-18T10:56:44.418Z,23.49
2018-08-18T10:59:19.666Z,23.49
2018-08-18T11:02:03.553Z,23.41
2018-08-18T11:04:34.672Z,23.44
2018-08-18T11:07:03.508Z,23.45
2018-08-18T11:09:32.744Z,23.27
2018-08-18T11:12:01.809Z,23.30
2018-08-18T11:14:30.268Z,23.46
2018-08-18T11:16:58.732Z,23.72
2018-08-18T11:19:27.147Z,23.84
2018-08-18T11:22:06.924Z,23.70
2018-08-18T11:24:35.363Z,23.94
2018-08-18T11:27:03.849Z,23.85
2018-08-18T11:29:32.308Z,24.07
2018-08-18T11:32:00.733Z,24.28
2018-08-18T11:34:29.189Z,24.38
2018-08-18T11:37:04.055Z,24.37
2018-08-18T11:39:32.548Z,24.16
2018-08-18T11:42:01.127Z,24.33
2018-08-18T11:44:29.667Z,24.46
2018-08-18T11:46:58.248Z,24.61
2018-08-18T11:49:26.647Z,24.72
2018-08-18T11:51:56.007Z,24.47
2018-08-18T11:54:24.590Z,24.36
2018-08-18T11:56:53.168Z,24.35
2018-08-18T11:59:21.678Z,24.50
2018-08-18T12:01:51.940Z,24.76
2018-08-18T12:04:21.820Z,25.02
2018-08-18T12:06:55.608Z,24.94
2018-08-18T12:09:24.596Z,25.06
2018-08-18T12:11:53.074Z,25.18
2018-08-18T12:14:21.960Z,25.34
2018-08-18T12:16:50.494Z,25.53
2018-08-18T12:19:19.164Z,25.26
2018-08-18T12:21:47.916Z,24.85
2018-08-18T12:24:17.927Z,24.87
2018-08-18T12:26:57.474Z,25.18
2018-08-18T12:29:26.040Z,25.28
2018-08-18T12:31:58.190Z,25.41
2018-08-18T12:34:31.584Z,25.33
2018-08-18T12:37:00.452Z,25.48
2018-08-18T12:39:28.954Z,25.41
2018-08-18T12:41:57.469Z,25.36
2018-08-18T12:44:28.874Z,25.73
2018-08-18T12:46:58.537Z,25.82
2018-08-18T12:49:27.044Z,25.79
2018-08-18T12:51:55.559Z,26.12
2018-08-18T12:54:24.019Z,25.95
2018-08-18T12:56:52.567Z,25.79
2018-08-18T12:59:21.128Z,25.84
2018-08-18T13:01:50.876Z,25.93
2018-08-18T13:04:21.112Z,26.01
2018-08-18T13:06:53.808Z,25.97
2018-08-18T13:09:23.660Z,25.93
2018-08-18T13:11:53.516Z,26.14
2018-08-18T13:14:26.584Z,26.31
2018-08-18T13:16:55.147Z,26.40
2018-08-18T13:19:29.003Z,26.54
2018-08-18T13:21:57.511Z,26.56
2018-08-18T13:24:26.003Z,26.46
2018-08-18T13:26:54.542Z,26.33
2018-08-18T13:29:23.101Z,26.19
2018-08-18T13:31:51.557Z,26.01
2018-08-18T13:34:20.017Z,26.17
2018-08-18T13:36:48.504Z,26.28
2018-08-18T13:39:18.460Z,26.45
2018-08-18T13:41:47.650Z,26.40
2018-08-18T13:44:44.840Z,26.44
2018-08-18T13:47:24.675Z,26.37
2018-08-18T13:50:09.419Z,26.35
2018-08-18T13:52:52.764Z,26.47
2018-08-18T13:55:33.645Z,26.67
2018-08-18T13:58:12.499Z,26.60
2018-08-18T14:00:51.235Z,26.50
2018-08-18T14:03:35.999Z,26.56
2018-08-18T14:06:16.635Z,26.52
2018-08-18T14:08:59.249Z,26.42
2018-08-18T14:11:38.589Z,26.40
2018-08-18T14:14:17.216Z,26.71
2018-08-18T14:16:55.392Z,26.78
2018-08-18T14:19:33.618Z,26.75
2018-08-18T14:22:08.252Z,26.82
2018-08-18T14:24:45.685Z,26.52
2018-08-18T14:27:23.692Z,26.34
2018-08-18T14:29:56.994Z,26.47
2018-08-18T14:32:38.809Z,26.16
2018-08-18T14:35:15.547Z,26.24
2018-08-18T14:37:53.310Z,26.34
2018-08-18T14:40:32.773Z,26.41
2018-08-18T14:43:09.190Z,26.46
2018-08-18T14:45:48.630Z,26.65
2018-08-18T14:48:26.003Z,26.80
2018-08-18T14:50:56.621Z,26.32
2018-08-18T14:53:36.381Z,26.12
2018-08-18T14:56:09.437Z,26.15
2018-08-18T14:58:41.160Z,26.23
2018-08-18T15:01:19.514Z,26.50
2018-08-18T15:03:57.408Z,26.55
2018-08-18T15:06:36.230Z,26.33
2018-08-18T15:09:15.925Z,26.33
2018-08-18T15:11:52.738Z,26.19
2018-08-18T15:14:30.323Z,25.97
2018-08-18T15:16:59.102Z,25.71
2018-08-18T15:19:27.591Z,25.45
2018-08-18T15:21:56.040Z,25.37
2018-08-18T15:24:25.280Z,25.36
2018-08-18T15:26:53.778Z,25.54
2018-08-18T15:29:22.297Z,25.52
2018-08-18T15:31:50.782Z,25.32
2018-08-18T15:34:19.495Z,25.19
2018-08-18T15:36:48.059Z,25.09
2018-08-18T15:39:16.605Z,25.05
2018-08-18T15:41:45.060Z,24.88
2018-08-18T15:44:14.507Z,24.87
2018-08-18T15:46:43.005Z,24.88
2018-08-18T15:49:13.027Z,24.94
2018-08-18T15:51:41.507Z,24.83
2018-08-18T15:54:10.026Z,24.85
2018-08-18T15:56:38.529Z,24.84
2018-08-18T15:59:07.132Z,24.87
2018-08-18T16:01:36.272Z,24.86
2018-08-18T16:04:05.056Z,24.94
2018-08-18T16:06:33.608Z,24.76
2018-08-18T16:09:02.118Z,24.58
2018-08-18T16:11:30.683Z,24.42
2018-08-18T16:13:59.121Z,24.30
2018-08-18T16:16:27.611Z,24.26
2018-08-18T16:19:02.869Z,24.25
2018-08-18T16:21:33.612Z,24.31
2018-08-18T16:24:02.454Z,24.32
2018-08-18T16:26:30.956Z,24.30
2018-08-18T16:28:59.396Z,24.34
2018-08-18T16:31:27.884Z,24.38
2018-08-18T16:33:56.312Z,24.26
2018-08-18T16:36:31.816Z,24.21
2018-08-18T16:39:00.897Z,24.20
2018-08-18T16:41:29.380Z,24.19
2018-08-18T16:43:57.846Z,24.16
2018-08-18T16:46:29.451Z,24.20
2018-08-18T16:48:57.948Z,24.20
2018-08-18T16:51:26.480Z,24.13
2018-08-18T16:53:55.056Z,24.14
2018-08-18T16:56:28.259Z,24.04
2018-08-18T16:59:00.056Z,24.04
2018-08-18T17:01:28.551Z,23.88
2018-08-18T17:03:57.021Z,23.81
2018-08-18T17:06:25.475Z,23.79
2018-08-18T17:08:53.970Z,23.82
2018-08-18T17:11:22.435Z,23.88
2018-08-18T17:13:50.894Z,23.84
2018-08-18T17:16:21.279Z,23.88
2018-08-18T17:18:49.761Z,23.82
2018-08-18T17:21:18.251Z,23.86
2018-08-18T17:23:46.703Z,23.88
2018-08-18T17:26:15.176Z,23.82
2018-08-18T17:28:43.630Z,23.79
2018-08-18T17:31:12.180Z,23.74
2018-08-18T17:33:40.622Z,23.74
2018-08-18T17:36:09.049Z,23.74
2018-08-18T17:38:37.560Z,23.68
2018-08-18T17:41:06.042Z,23.63
2018-08-18T17:43:34.532Z,23.64
2018-08-18T17:46:05.296Z,23.54
2018-08-18T17:48:41.116Z,23.54
2018-08-18T17:51:09.804Z,23.51
2018-08-18T17:53:42.443Z,23.45
2018-08-18T17:56:11.218Z,23.26
2018-08-18T17:58:39.712Z,23.26
2018-08-18T18:01:08.366Z,23.27
2018-08-18T18:03:36.899Z,23.20
2018-08-18T18:06:05.416Z,23.10
2018-08-18T18:08:33.912Z,22.98
2018-08-18T18:11:02.478Z,23.01
2018-08-18T18:13:31.015Z,22.97
2018-08-18T18:15:59.444Z,22.91
2018-08-18T18:18:35.333Z,22.84
2018-08-18T18:21:03.859Z,22.78
2018-08-18T18:23:32.333Z,22.67
2018-08-18T18:26:00.812Z,22.60
2018-08-18T18:28:29.283Z,22.53
2018-08-18T18:30:57.731Z,22.48
2018-08-18T18:33:26.240Z,22.36
2018-08-18T18:35:54.706Z,22.26
2018-08-18T18:38:23.272Z,22.18
2018-08-18T18:40:51.709Z,22.09
2018-08-18T18:43:20.252Z,21.98
2018-08-18T18:45:48.769Z,21.90
2018-08-18T18:48:17.459Z,21.80
2018-08-18T18:50:47.960Z,21.77
2018-08-18T18:53:16.543Z,21.69
2018-08-18T18:55:50.728Z,21.63
2018-08-18T18:58:19.188Z,21.48
2018-08-18T19:01:05.171Z,21.37
2018-08-18T19:03:33.689Z,21.29
2018-08-18T19:06:02.328Z,21.19
2018-08-18T19:08:30.847Z,21.04
2018-08-18T19:11:01.976Z,20.97
2018-08-18T19:13:30.453Z,20.82
2018-08-18T19:15:59.032Z,20.75
2018-08-18T19:18:27.517Z,20.66
2018-08-18T19:20:56.928Z,20.56
2018-08-18T19:23:26.889Z,20.39
2018-08-18T19:25:55.817Z,20.27
2018-08-18T19:28:24.669Z,20.18
2018-08-18T19:30:53.216Z,20.08
2018-08-18T19:33:22.148Z,19.99
2018-08-18T19:35:52.547Z,19.89
2018-08-18T19:38:21.976Z,19.81
2018-08-18T19:40:53.628Z,19.72
2018-08-18T19:43:26.467Z,19.63
2018-08-18T19:45:55.397Z,19.57
2018-08-18T19:48:25.298Z,19.50
2018-08-18T19:50:59.175Z,19.48
2018-08-18T19:53:29.564Z,19.44
2018-08-18T19:55:59.251Z,19.41
2018-08-18T19:58:28.468Z,19.40
2018-08-18T20:00:56.978Z,19.26
2018-08-18T20:03:25.903Z,19.18
2018-08-18T20:05:54.406Z,19.10
2018-08-18T20:08:24.299Z,19.08
2018-08-18T20:10:54.732Z,18.99
2018-08-18T20:13:24.442Z,18.95
2018-08-18T20:15:54.276Z,18.91
2018-08-18T20:18:22.896Z,18.88
2018-08-18T20:20:51.364Z,18.79
2018-08-18T20:23:20.936Z,18.72
2018-08-18T20:25:50.175Z,18.67
2018-08-18T20:28:18.716Z,18.60
2018-08-18T20:30:47.182Z,18.56
2018-08-18T20:33:15.833Z,18.54
2018-08-18T20:35:44.288Z,18.49
2018-08-18T20:38:12.762Z,18.44
2018-08-18T20:40:41.273Z,18.43
2018-08-18T20:43:09.802Z,18.44
2018-08-18T20:45:42.404Z,18.41
2018-08-18T20:48:13.522Z,18.40
2018-08-18T20:50:41.982Z,18.37
2018-08-18T20:53:13.079Z,18.39
2018-08-18T20:55:43.480Z,18.22
2018-08-18T20:58:12.243Z,18.15
2018-08-18T21:00:40.819Z,18.09
2018-08-18T21:03:09.274Z,18.05
2018-08-18T21:05:37.842Z,18.01
2018-08-18T21:08:11.664Z,17.96
2018-08-18T21:10:40.157Z,17.90
2018-08-18T21:13:08.595Z,17.99
2018-08-18T21:15:37.076Z,17.96
2018-08-18T21:18:10.920Z,17.87
2018-08-18T21:20:39.401Z,17.79
2018-08-18T21:23:07.893Z,17.77
2018-08-18T21:25:45.012Z,17.73
2018-08-18T21:28:14.693Z,17.62
2018-08-18T21:30:43.163Z,17.55
2018-08-18T21:33:11.675Z,17.60
2018-08-18T21:35:40.585Z,17.52
2018-08-18T21:38:09.304Z,17.52
2018-08-18T21:40:37.967Z,17.42
2018-08-18T21:43:07.428Z,17.41
2018-08-18T21:45:41.062Z,17.36
2018-08-18T21:48:09.693Z,17.39
2018-08-18T21:50:38.161Z,17.39
2018-08-18T21:53:06.616Z,17.43
2018-08-18T21:55:35.056Z,17.33
2018-08-18T21:58:03.596Z,17.35
2018-08-18T22:00:37.375Z,17.28
2018-08-18T22:03:06.214Z,17.19
2018-08-18T22:05:34.660Z,17.13
2018-08-18T22:08:03.148Z,17.09
2018-08-18T22:10:31.659Z,17.09
2018-08-18T22:13:00.156Z,17.02
2018-08-18T22:15:31.997Z,16.97
2018-08-18T22:18:00.474Z,16.99
2018-08-18T22:20:28.991Z,17.03
2018-08-18T22:22:57.532Z,17.03
2018-08-18T22:25:26.037Z,16.96
2018-08-18T22:27:54.837Z,17.06
2018-08-18T22:30:27.132Z,17.07
2018-08-18T22:32:55.680Z,16.97
2018-08-18T22:35:24.175Z,16.92
2018-08-18T22:37:52.622Z,16.98
2018-08-18T22:40:21.106Z,16.92
2018-08-18T22:42:49.589Z,16.89
2018-08-18T22:45:28.848Z,16.90
2018-08-18T22:47:57.472Z,16.82
2018-08-18T22:50:25.952Z,16.78
2018-08-18T22:52:54.995Z,16.67
2018-08-18T22:55:23.541Z,16.65
2018-08-18T22:57:58.105Z,16.57
2018-08-18T23:00:26.889Z,16.59
2018-08-18T23:02:55.342Z,16.57
2018-08-18T23:05:23.825Z,16.53
2018-08-18T23:07:54.217Z,16.57
2018-08-18T23:10:23.540Z,16.47
2018-08-18T23:12:51.999Z,16.37
2018-08-18T23:15:20.753Z,16.32
2018-08-18T23:17:49.257Z,16.37
2018-08-18T23:20:17.729Z,16.32
2018-08-18T23:22:55.136Z,16.28
2018-08-18T23:25:25.013Z,16.24
2018-08-18T23:27:54.006Z,16.23
2018-08-18T23:30:28.079Z,16.17
2018-08-18T23:32:57.581Z,16.20
2018-08-18T23:35:27.570Z,16.14
2018-08-18T23:37:56.424Z,16.14
2018-08-18T23:40:24.995Z,16.09
2018-08-18T23:42:53.745Z,16.10
2018-08-18T23:45:22.584Z,16.03
2018-08-18T23:47:57.137Z,15.98
2018-08-18T23:50:27.061Z,16.04
2018-08-18T23:53:00.277Z,16.02
2018-08-18T23:55:29.971Z,15.97
2018-08-18T23:57:59.347Z,15.86
